Terminal Aerodrome Forecast
Issued by NWS

Current Version | Previous Version | Text Only | Print | Product List | Glossary Off
Versions: 1 2 3 4 5 6 7 8 9 10 11 12 13 14 15 16 17 18 19 20 21

000
FTUS41 KRLX 300531
TAFCKB
TAF
KCKB 300531Z 3006/0106 00000KT 6SM -SHRA BKN060
     FM300900 00000KT 5SM BR BKN090
     FM301300 22005KT P6SM BKN070
     FM301700 22008KT P6SM VCTS BKN060CB
     FM010300 VRB03KT P6SM BKN040=

USA.gov is the U.S. government's official web portal to all federal, state and local government web resources and services.